sensor_id;sensor_type;location;lat;lon;timestamp;P1;durP1;ratioP1;P2;durP2;ratioP2
21334;SDS011;69435;52.670;13.544;2023-12-14T00:02:25;15.40;;;9.10;;
21334;SDS011;69435;52.670;13.544;2023-12-14T00:05:11;13.43;;;7.17;;
21334;SDS011;69435;52.670;13.544;2023-12-14T00:07:57;14.77;;;8.20;;
21334;SDS011;69435;52.670;13.544;2023-12-14T00:10:43;13.07;;;8.40;;
21334;SDS011;69435;52.670;13.544;2023-12-14T00:13:29;14.67;;;8.23;;
21334;SDS011;69435;52.670;13.544;2023-12-14T00:16:19;12.83;;;7.70;;
21334;SDS011;69435;52.670;13.544;2023-12-14T00:19:05;14.83;;;7.77;;
21334;SDS011;69435;52.670;13.544;2023-12-14T00:21:51;13.23;;;7.30;;
21334;SDS011;69435;52.670;13.544;2023-12-14T00:24:37;16.90;;;7.90;;
21334;SDS011;69435;52.670;13.544;2023-12-14T00:27:24;8.60;;;6.37;;
21334;SDS011;69435;52.670;13.544;2023-12-14T00:30:10;12.00;;;6.93;;
21334;SDS011;69435;52.670;13.544;2023-12-14T00:32:56;15.40;;;7.27;;
21334;SDS011;69435;52.670;13.544;2023-12-14T00:35:42;11.37;;;7.07;;
21334;SDS011;69435;52.670;13.544;2023-12-14T00:38:28;16.07;;;7.23;;
21334;SDS011;69435;52.670;13.544;2023-12-14T00:41:14;13.77;;;6.73;;
21334;SDS011;69435;52.670;13.544;2023-12-14T00:44:00;11.23;;;6.30;;
21334;SDS011;69435;52.670;13.544;2023-12-14T00:46:46;10.43;;;6.80;;
21334;SDS011;69435;52.670;13.544;2023-12-14T00:49:32;13.87;;;6.67;;
21334;SDS011;69435;52.670;13.544;2023-12-14T00:52:18;14.27;;;6.47;;
21334;SDS011;69435;52.670;13.544;2023-12-14T00:55:05;15.93;;;6.40;;
21334;SDS011;69435;52.670;13.544;2023-12-14T00:57:51;12.50;;;6.37;;
21334;SDS011;69435;52.670;13.544;2023-12-14T01:00:37;8.47;;;6.30;;
21334;SDS011;69435;52.670;13.544;2023-12-14T01:03:24;12.57;;;5.37;;
21334;SDS011;69435;52.670;13.544;2023-12-14T01:06:10;7.50;;;5.77;;
21334;SDS011;69435;52.670;13.544;2023-12-14T01:08:56;9.47;;;6.40;;
21334;SDS011;69435;52.670;13.544;2023-12-14T01:11:42;8.97;;;6.03;;
21334;SDS011;69435;52.670;13.544;2023-12-14T01:14:28;9.80;;;6.83;;
21334;SDS011;69435;52.670;13.544;2023-12-14T01:17:14;8.20;;;6.70;;
21334;SDS011;69435;52.670;13.544;2023-12-14T01:20:00;12.80;;;6.00;;
21334;SDS011;69435;52.670;13.544;2023-12-14T01:22:52;9.83;;;6.67;;
21334;SDS011;69435;52.670;13.544;2023-12-14T01:25:38;7.90;;;5.83;;
21334;SDS011;69435;52.670;13.544;2023-12-14T01:28:24;9.23;;;6.30;;
21334;SDS011;69435;52.670;13.544;2023-12-14T01:31:10;12.10;;;7.40;;
21334;SDS011;69435;52.670;13.544;2023-12-14T01:33:56;12.33;;;7.47;;
21334;SDS011;69435;52.670;13.544;2023-12-14T01:36:42;12.33;;;7.17;;
21334;SDS011;69435;52.670;13.544;2023-12-14T01:39:28;9.23;;;7.03;;
21334;SDS011;69435;52.670;13.544;2023-12-14T01:42:14;12.87;;;7.77;;
21334;SDS011;69435;52.670;13.544;2023-12-14T01:45:00;9.87;;;6.77;;
21334;SDS011;69435;52.670;13.544;2023-12-14T01:47:46;17.73;;;7.97;;
21334;SDS011;69435;52.670;13.544;2023-12-14T01:50:32;10.50;;;7.50;;
21334;SDS011;69435;52.670;13.544;2023-12-14T01:53:18;10.13;;;7.17;;
21334;SDS011;69435;52.670;13.544;2023-12-14T01:56:04;11.00;;;6.67;;
21334;SDS011;69435;52.670;13.544;2023-12-14T01:58:51;14.50;;;7.23;;
21334;SDS011;69435;52.670;13.544;2023-12-14T02:01:44;12.00;;;8.13;;
21334;SDS011;69435;52.670;13.544;2023-12-14T02:04:32;14.03;;;7.37;;
21334;SDS011;69435;52.670;13.544;2023-12-14T02:07:18;9.77;;;6.77;;
21334;SDS011;69435;52.670;13.544;2023-12-14T02:10:05;10.37;;;7.17;;
21334;SDS011;69435;52.670;13.544;2023-12-14T02:12:51;15.90;;;7.33;;
21334;SDS011;69435;52.670;13.544;2023-12-14T02:15:37;18.83;;;9.10;;
21334;SDS011;69435;52.670;13.544;2023-12-14T02:18:24;13.27;;;8.13;;
21334;SDS011;69435;52.670;13.544;2023-12-14T02:21:10;15.57;;;7.57;;
21334;SDS011;69435;52.670;13.544;2023-12-14T02:23:56;14.57;;;8.07;;
21334;SDS011;69435;52.670;13.544;2023-12-14T02:26:42;12.30;;;7.83;;
21334;SDS011;69435;52.670;13.544;2023-12-14T02:29:28;11.43;;;7.87;;
21334;SDS011;69435;52.670;13.544;2023-12-14T02:32:15;9.73;;;7.30;;
21334;SDS011;69435;52.670;13.544;2023-12-14T02:35:01;12.83;;;8.37;;
21334;SDS011;69435;52.670;13.544;2023-12-14T02:37:47;11.97;;;7.43;;
21334;SDS011;69435;52.670;13.544;2023-12-14T02:40:34;11.97;;;8.17;;
21334;SDS011;69435;52.670;13.544;2023-12-14T02:43:20;14.83;;;8.67;;
21334;SDS011;69435;52.670;13.544;2023-12-14T02:46:06;13.90;;;7.50;;
21334;SDS011;69435;52.670;13.544;2023-12-14T02:48:53;11.43;;;7.73;;
21334;SDS011;69435;52.670;13.544;2023-12-14T02:51:39;11.47;;;7.27;;
21334;SDS011;69435;52.670;13.544;2023-12-14T02:54:25;11.53;;;7.40;;
21334;SDS011;69435;52.670;13.544;2023-12-14T02:57:11;9.50;;;6.53;;
21334;SDS011;69435;52.670;13.544;2023-12-14T02:59:57;12.03;;;7.23;;
21334;SDS011;69435;52.670;13.544;2023-12-14T03:02:43;10.83;;;6.00;;
21334;SDS011;69435;52.670;13.544;2023-12-14T03:05:29;10.77;;;6.27;;
21334;SDS011;69435;52.670;13.544;2023-12-14T03:08:15;8.87;;;5.73;;
21334;SDS011;69435;52.670;13.544;2023-12-14T03:11:01;10.63;;;6.07;;
21334;SDS011;69435;52.670;13.544;2023-12-14T03:13:47;12.40;;;6.37;;
21334;SDS011;69435;52.670;13.544;2023-12-14T03:16:33;11.50;;;7.00;;
21334;SDS011;69435;52.670;13.544;2023-12-14T03:19:22;13.83;;;7.07;;
21334;SDS011;69435;52.670;13.544;2023-12-14T03:22:08;16.57;;;7.00;;
21334;SDS011;69435;52.670;13.544;2023-12-14T03:24:55;12.10;;;7.13;;
21334;SDS011;69435;52.670;13.544;2023-12-14T03:27:41;11.27;;;6.67;;
21334;SDS011;69435;52.670;13.544;2023-12-14T03:30:27;9.00;;;6.30;;
21334;SDS011;69435;52.670;13.544;2023-12-14T03:33:13;9.77;;;6.70;;
21334;SDS011;69435;52.670;13.544;2023-12-14T03:35:59;10.90;;;7.17;;
21334;SDS011;69435;52.670;13.544;2023-12-14T03:38:45;13.13;;;7.23;;
21334;SDS011;69435;52.670;13.544;2023-12-14T03:41:31;11.93;;;6.23;;
21334;SDS011;69435;52.670;13.544;2023-12-14T03:44:17;8.97;;;6.33;;
21334;SDS011;69435;52.670;13.544;2023-12-14T03:47:03;9.23;;;6.90;;
21334;SDS011;69435;52.670;13.544;2023-12-14T03:49:49;14.67;;;7.47;;
21334;SDS011;69435;52.670;13.544;2023-12-14T03:52:36;13.20;;;7.13;;
21334;SDS011;69435;52.670;13.544;2023-12-14T03:55:22;12.60;;;7.37;;
21334;SDS011;69435;52.670;13.544;2023-12-14T03:58:08;13.10;;;7.17;;
21334;SDS011;69435;52.670;13.544;2023-12-14T04:00:54;14.57;;;7.17;;
21334;SDS011;69435;52.670;13.544;2023-12-14T04:03:40;16.60;;;7.73;;
21334;SDS011;69435;52.670;13.544;2023-12-14T04:06:26;12.47;;;7.83;;
21334;SDS011;69435;52.670;13.544;2023-12-14T04:09:12;9.17;;;7.13;;
21334;SDS011;69435;52.670;13.544;2023-12-14T04:11:58;13.93;;;7.00;;
21334;SDS011;69435;52.670;13.544;2023-12-14T04:14:45;11.40;;;7.60;;
21334;SDS011;69435;52.670;13.544;2023-12-14T04:17:31;13.47;;;7.73;;
21334;SDS011;69435;52.670;13.544;2023-12-14T04:20:18;9.60;;;6.90;;
21334;SDS011;69435;52.670;13.544;2023-12-14T04:23:04;15.13;;;7.83;;
21334;SDS011;69435;52.670;13.544;2023-12-14T04:25:50;12.20;;;7.07;;
21334;SDS011;69435;52.670;13.544;2023-12-14T04:28:36;12.70;;;6.63;;
21334;SDS011;69435;52.670;13.544;2023-12-14T04:31:22;12.20;;;7.50;;
21334;SDS011;69435;52.670;13.544;2023-12-14T04:34:09;16.57;;;7.23;;
21334;SDS011;69435;52.670;13.544;2023-12-14T04:36:59;12.53;;;8.10;;
21334;SDS011;69435;52.670;13.544;2023-12-14T04:39:45;8.63;;;6.80;;
21334;SDS011;69435;52.670;13.544;2023-12-14T04:42:31;9.47;;;7.33;;
21334;SDS011;69435;52.670;13.544;2023-12-14T04:45:17;9.73;;;6.63;;
21334;SDS011;69435;52.670;13.544;2023-12-14T04:48:04;11.03;;;7.00;;
21334;SDS011;69435;52.670;13.544;2023-12-14T04:50:50;9.90;;;7.37;;
21334;SDS011;69435;52.670;13.544;2023-12-14T04:53:36;7.83;;;6.67;;
21334;SDS011;69435;52.670;13.544;2023-12-14T04:56:22;11.60;;;6.90;;
21334;SDS011;69435;52.670;13.544;2023-12-14T04:59:08;9.60;;;7.03;;
21334;SDS011;69435;52.670;13.544;2023-12-14T05:01:55;12.20;;;7.20;;
21334;SDS011;69435;52.670;13.544;2023-12-14T05:04:40;8.57;;;6.30;;
21334;SDS011;69435;52.670;13.544;2023-12-14T05:07:26;11.57;;;7.00;;
21334;SDS011;69435;52.670;13.544;2023-12-14T05:10:13;11.63;;;7.57;;
21334;SDS011;69435;52.670;13.544;2023-12-14T05:12:59;9.43;;;7.03;;
21334;SDS011;69435;52.670;13.544;2023-12-14T05:15:45;12.03;;;7.87;;
21334;SDS011;69435;52.670;13.544;2023-12-14T05:18:31;12.40;;;8.17;;
21334;SDS011;69435;52.670;13.544;2023-12-14T05:21:18;15.53;;;7.47;;
21334;SDS011;69435;52.670;13.544;2023-12-14T05:24:04;8.40;;;6.67;;
21334;SDS011;69435;52.670;13.544;2023-12-14T05:26:50;14.37;;;9.17;;
21334;SDS011;69435;52.670;13.544;2023-12-14T05:29:37;13.37;;;8.30;;
21334;SDS011;69435;52.670;13.544;2023-12-14T05:32:23;12.10;;;7.10;;
21334;SDS011;69435;52.670;13.544;2023-12-14T05:35:09;9.70;;;7.10;;
21334;SDS011;69435;52.670;13.544;2023-12-14T05:37:55;11.27;;;6.83;;
21334;SDS011;69435;52.670;13.544;2023-12-14T05:40:41;11.27;;;7.07;;
21334;SDS011;69435;52.670;13.544;2023-12-14T05:43:27;7.20;;;6.23;;
21334;SDS011;69435;52.670;13.544;2023-12-14T05:46:23;10.90;;;7.57;;
21334;SDS011;69435;52.670;13.544;2023-12-14T05:49:10;10.73;;;7.27;;
21334;SDS011;69435;52.670;13.544;2023-12-14T05:51:58;14.03;;;7.57;;
21334;SDS011;69435;52.670;13.544;2023-12-14T05:54:45;11.07;;;7.83;;
21334;SDS011;69435;52.670;13.544;2023-12-14T05:57:31;12.67;;;7.77;;
21334;SDS011;69435;52.670;13.544;2023-12-14T06:00:17;12.97;;;8.43;;
21334;SDS011;69435;52.670;13.544;2023-12-14T06:03:04;11.77;;;7.63;;
21334;SDS011;69435;52.670;13.544;2023-12-14T06:05:50;12.17;;;8.60;;
21334;SDS011;69435;52.670;13.544;2023-12-14T06:08:37;13.20;;;8.80;;
21334;SDS011;69435;52.670;13.544;2023-12-14T06:11:23;12.37;;;8.07;;
21334;SDS011;69435;52.670;13.544;2023-12-14T06:14:09;10.63;;;7.80;;
21334;SDS011;69435;52.670;13.544;2023-12-14T06:16:55;11.53;;;7.57;;
21334;SDS011;69435;52.670;13.544;2023-12-14T06:19:42;12.53;;;8.07;;
21334;SDS011;69435;52.670;13.544;2023-12-14T06:22:28;12.47;;;7.90;;
21334;SDS011;69435;52.670;13.544;2023-12-14T06:25:14;12.57;;;8.03;;
21334;SDS011;69435;52.670;13.544;2023-12-14T06:28:00;9.00;;;7.57;;
21334;SDS011;69435;52.670;13.544;2023-12-14T06:30:46;17.00;;;8.43;;
21334;SDS011;69435;52.670;13.544;2023-12-14T06:33:32;14.70;;;8.60;;
21334;SDS011;69435;52.670;13.544;2023-12-14T06:36:18;14.47;;;9.03;;
21334;SDS011;69435;52.670;13.544;2023-12-14T06:39:04;16.40;;;9.23;;
21334;SDS011;69435;52.670;13.544;2023-12-14T06:41:52;16.47;;;9.37;;
21334;SDS011;69435;52.670;13.544;2023-12-14T06:44:39;13.77;;;9.23;;
21334;SDS011;69435;52.670;13.544;2023-12-14T06:47:25;13.90;;;8.93;;
21334;SDS011;69435;52.670;13.544;2023-12-14T06:50:11;16.67;;;10.07;;
21334;SDS011;69435;52.670;13.544;2023-12-14T06:52:58;14.90;;;9.77;;
21334;SDS011;69435;52.670;13.544;2023-12-14T06:55:44;14.27;;;8.90;;
21334;SDS011;69435;52.670;13.544;2023-12-14T06:58:30;17.43;;;9.43;;
21334;SDS011;69435;52.670;13.544;2023-12-14T07:01:17;19.70;;;9.97;;
21334;SDS011;69435;52.670;13.544;2023-12-14T07:04:03;18.20;;;9.50;;
21334;SDS011;69435;52.670;13.544;2023-12-14T07:06:50;20.23;;;9.57;;
21334;SDS011;69435;52.670;13.544;2023-12-14T07:09:37;14.77;;;9.27;;
21334;SDS011;69435;52.670;13.544;2023-12-14T07:12:23;15.17;;;9.87;;
21334;SDS011;69435;52.670;13.544;2023-12-14T07:15:09;16.93;;;9.90;;
21334;SDS011;69435;52.670;13.544;2023-12-14T07:17:55;19.30;;;10.43;;
21334;SDS011;69435;52.670;13.544;2023-12-14T07:20:41;18.90;;;10.97;;
21334;SDS011;69435;52.670;13.544;2023-12-14T07:23:27;19.10;;;9.87;;
21334;SDS011;69435;52.670;13.544;2023-12-14T07:26:13;13.67;;;8.90;;
21334;SDS011;69435;52.670;13.544;2023-12-14T07:28:59;16.23;;;10.20;;
21334;SDS011;69435;52.670;13.544;2023-12-14T07:31:45;21.73;;;11.00;;
21334;SDS011;69435;52.670;13.544;2023-12-14T07:34:31;16.07;;;9.70;;
21334;SDS011;69435;52.670;13.544;2023-12-14T07:37:18;17.20;;;9.63;;
21334;SDS011;69435;52.670;13.544;2023-12-14T07:40:04;13.53;;;9.43;;
21334;SDS011;69435;52.670;13.544;2023-12-14T07:42:51;17.00;;;9.57;;
21334;SDS011;69435;52.670;13.544;2023-12-14T07:45:37;18.50;;;9.50;;
21334;SDS011;69435;52.670;13.544;2023-12-14T07:48:23;15.70;;;10.27;;
21334;SDS011;69435;52.670;13.544;2023-12-14T07:51:09;16.37;;;9.80;;
21334;SDS011;69435;52.670;13.544;2023-12-14T07:53:55;19.53;;;10.13;;
21334;SDS011;69435;52.670;13.544;2023-12-14T07:56:41;20.77;;;11.00;;
21334;SDS011;69435;52.670;13.544;2023-12-14T07:59:27;22.67;;;10.50;;
21334;SDS011;69435;52.670;13.544;2023-12-14T08:02:15;17.67;;;9.13;;
21334;SDS011;69435;52.670;13.544;2023-12-14T08:05:01;20.20;;;10.10;;
21334;SDS011;69435;52.670;13.544;2023-12-14T08:07:47;18.73;;;10.43;;
21334;SDS011;69435;52.670;13.544;2023-12-14T08:10:33;19.40;;;10.43;;
21334;SDS011;69435;52.670;13.544;2023-12-14T08:13:19;20.47;;;10.63;;
21334;SDS011;69435;52.670;13.544;2023-12-14T08:16:06;22.83;;;10.30;;
21334;SDS011;69435;52.670;13.544;2023-12-14T08:18:53;21.07;;;10.40;;
21334;SDS011;69435;52.670;13.544;2023-12-14T08:21:39;17.40;;;10.20;;
21334;SDS011;69435;52.670;13.544;2023-12-14T08:24:25;19.23;;;10.10;;
21334;SDS011;69435;52.670;13.544;2023-12-14T08:27:19;18.07;;;10.33;;
21334;SDS011;69435;52.670;13.544;2023-12-14T08:30:13;19.03;;;10.53;;
21334;SDS011;69435;52.670;13.544;2023-12-14T08:33:00;15.60;;;9.50;;
21334;SDS011;69435;52.670;13.544;2023-12-14T08:35:46;18.40;;;10.17;;
21334;SDS011;69435;52.670;13.544;2023-12-14T08:38:32;17.20;;;9.50;;
21334;SDS011;69435;52.670;13.544;2023-12-14T08:41:18;16.87;;;9.40;;
21334;SDS011;69435;52.670;13.544;2023-12-14T08:44:04;15.13;;;9.27;;
21334;SDS011;69435;52.670;13.544;2023-12-14T08:46:50;20.17;;;10.60;;
21334;SDS011;69435;52.670;13.544;2023-12-14T08:49:36;19.00;;;10.60;;
21334;SDS011;69435;52.670;13.544;2023-12-14T08:52:22;17.70;;;9.70;;
21334;SDS011;69435;52.670;13.544;2023-12-14T08:55:08;19.60;;;10.23;;
21334;SDS011;69435;52.670;13.544;2023-12-14T08:57:54;23.30;;;10.83;;
21334;SDS011;69435;52.670;13.544;2023-12-14T09:00:41;18.87;;;10.20;;
21334;SDS011;69435;52.670;13.544;2023-12-14T09:03:27;20.50;;;11.37;;
21334;SDS011;69435;52.670;13.544;2023-12-14T09:06:13;17.73;;;10.27;;
21334;SDS011;69435;52.670;13.544;2023-12-14T09:09:00;18.27;;;10.10;;
21334;SDS011;69435;52.670;13.544;2023-12-14T09:11:46;22.27;;;11.57;;
21334;SDS011;69435;52.670;13.544;2023-12-14T09:14:32;21.90;;;12.23;;
21334;SDS011;69435;52.670;13.544;2023-12-14T09:17:18;22.93;;;10.63;;
21334;SDS011;69435;52.670;13.544;2023-12-14T09:20:04;22.67;;;11.03;;
21334;SDS011;69435;52.670;13.544;2023-12-14T09:22:51;21.97;;;10.87;;
21334;SDS011;69435;52.670;13.544;2023-12-14T09:25:38;18.10;;;9.97;;
21334;SDS011;69435;52.670;13.544;2023-12-14T09:28:25;20.47;;;10.77;;
21334;SDS011;69435;52.670;13.544;2023-12-14T09:31:11;22.87;;;10.83;;
21334;SDS011;69435;52.670;13.544;2023-12-14T09:33:57;26.53;;;10.43;;
21334;SDS011;69435;52.670;13.544;2023-12-14T09:36:44;22.53;;;10.80;;
21334;SDS011;69435;52.670;13.544;2023-12-14T09:39:30;17.67;;;10.50;;
21334;SDS011;69435;52.670;13.544;2023-12-14T09:42:16;19.70;;;10.63;;
21334;SDS011;69435;52.670;13.544;2023-12-14T09:45:08;17.73;;;8.93;;
21334;SDS011;69435;52.670;13.544;2023-12-14T09:47:59;17.70;;;9.73;;
21334;SDS011;69435;52.670;13.544;2023-12-14T09:50:46;18.10;;;10.20;;
21334;SDS011;69435;52.670;13.544;2023-12-14T09:53:34;15.27;;;9.33;;
21334;SDS011;69435;52.670;13.544;2023-12-14T09:56:20;15.40;;;9.53;;
21334;SDS011;69435;52.670;13.544;2023-12-14T09:59:06;18.67;;;9.97;;
21334;SDS011;69435;52.670;13.544;2023-12-14T10:01:52;16.10;;;9.40;;
21334;SDS011;69435;52.670;13.544;2023-12-14T10:04:47;14.10;;;9.10;;
21334;SDS011;69435;52.670;13.544;2023-12-14T10:07:33;10.93;;;8.13;;
21334;SDS011;69435;52.670;13.544;2023-12-14T10:10:28;11.90;;;8.23;;
21334;SDS011;69435;52.670;13.544;2023-12-14T10:13:15;17.90;;;9.73;;
21334;SDS011;69435;52.670;13.544;2023-12-14T10:16:01;14.93;;;8.93;;
21334;SDS011;69435;52.670;13.544;2023-12-14T10:18:47;18.40;;;9.17;;
21334;SDS011;69435;52.670;13.544;2023-12-14T10:21:36;18.67;;;8.87;;
21334;SDS011;69435;52.670;13.544;2023-12-14T10:24:22;16.87;;;9.20;;
21334;SDS011;69435;52.670;13.544;2023-12-14T10:27:08;12.63;;;8.70;;
21334;SDS011;69435;52.670;13.544;2023-12-14T10:29:55;18.30;;;9.83;;
21334;SDS011;69435;52.670;13.544;2023-12-14T10:32:41;14.87;;;8.83;;
21334;SDS011;69435;52.670;13.544;2023-12-14T10:35:27;14.10;;;7.67;;
21334;SDS011;69435;52.670;13.544;2023-12-14T10:38:13;13.83;;;8.07;;
21334;SDS011;69435;52.670;13.544;2023-12-14T10:41:02;14.57;;;8.93;;
21334;SDS011;69435;52.670;13.544;2023-12-14T10:43:50;13.90;;;8.37;;
21334;SDS011;69435;52.670;13.544;2023-12-14T10:46:41;9.33;;;7.17;;
21334;SDS011;69435;52.670;13.544;2023-12-14T10:49:31;11.03;;;7.57;;
21334;SDS011;69435;52.670;13.544;2023-12-14T10:52:20;12.43;;;8.70;;
21334;SDS011;69435;52.670;13.544;2023-12-14T10:55:21;11.57;;;8.20;;
21334;SDS011;69435;52.670;13.544;2023-12-14T10:58:44;12.17;;;8.13;;
21334;SDS011;69435;52.670;13.544;2023-12-14T11:01:44;11.17;;;7.67;;
21334;SDS011;69435;52.670;13.544;2023-12-14T11:04:30;10.27;;;7.43;;
21334;SDS011;69435;52.670;13.544;2023-12-14T11:07:16;16.23;;;8.97;;
21334;SDS011;69435;52.670;13.544;2023-12-14T11:10:02;13.70;;;8.67;;
21334;SDS011;69435;52.670;13.544;2023-12-14T11:15:50;12.20;;;7.70;;
21334;SDS011;69435;52.670;13.544;2023-12-14T11:18:37;13.03;;;8.30;;
21334;SDS011;69435;52.670;13.544;2023-12-14T11:21:23;13.37;;;7.73;;
21334;SDS011;69435;52.670;13.544;2023-12-14T11:24:10;11.77;;;8.57;;
21334;SDS011;69435;52.670;13.544;2023-12-14T11:26:58;10.77;;;7.40;;
21334;SDS011;69435;52.670;13.544;2023-12-14T11:29:44;14.73;;;8.33;;
21334;SDS011;69435;52.670;13.544;2023-12-14T11:32:34;12.13;;;7.83;;
21334;SDS011;69435;52.670;13.544;2023-12-14T11:35:20;8.37;;;7.47;;
21334;SDS011;69435;52.670;13.544;2023-12-14T11:38:06;12.40;;;8.00;;
21334;SDS011;69435;52.670;13.544;2023-12-14T11:40:58;9.53;;;7.90;;
21334;SDS011;69435;52.670;13.544;2023-12-14T11:43:45;10.70;;;7.73;;
21334;SDS011;69435;52.670;13.544;2023-12-14T11:46:31;12.10;;;6.90;;
21334;SDS011;69435;52.670;13.544;2023-12-14T11:49:17;13.47;;;7.20;;
21334;SDS011;69435;52.670;13.544;2023-12-14T11:52:03;14.80;;;8.13;;
21334;SDS011;69435;52.670;13.544;2023-12-14T11:54:50;10.70;;;7.37;;
21334;SDS011;69435;52.670;13.544;2023-12-14T11:57:36;9.10;;;7.00;;
21334;SDS011;69435;52.670;13.544;2023-12-14T12:00:26;10.23;;;7.27;;
21334;SDS011;69435;52.670;13.544;2023-12-14T12:03:17;8.00;;;6.87;;
21334;SDS011;69435;52.670;13.544;2023-12-14T12:06:07;7.27;;;6.47;;
21334;SDS011;69435;52.670;13.544;2023-12-14T12:08:53;10.17;;;6.90;;
21334;SDS011;69435;52.670;13.544;2023-12-14T12:11:40;9.40;;;6.70;;
21334;SDS011;69435;52.670;13.544;2023-12-14T12:14:27;8.17;;;6.23;;
21334;SDS011;69435;52.670;13.544;2023-12-14T12:17:14;10.43;;;7.47;;
21334;SDS011;69435;52.670;13.544;2023-12-14T12:20:00;9.33;;;7.47;;
21334;SDS011;69435;52.670;13.544;2023-12-14T12:22:46;9.27;;;6.03;;
21334;SDS011;69435;52.670;13.544;2023-12-14T12:25:33;9.63;;;6.70;;
21334;SDS011;69435;52.670;13.544;2023-12-14T12:28:21;9.07;;;6.80;;
21334;SDS011;69435;52.670;13.544;2023-12-14T12:31:07;10.43;;;6.73;;
21334;SDS011;69435;52.670;13.544;2023-12-14T12:33:53;10.20;;;7.03;;
21334;SDS011;69435;52.670;13.544;2023-12-14T12:36:39;10.27;;;7.07;;
21334;SDS011;69435;52.670;13.544;2023-12-14T12:39:25;11.20;;;7.20;;
21334;SDS011;69435;52.670;13.544;2023-12-14T12:42:13;10.23;;;7.43;;
21334;SDS011;69435;52.670;13.544;2023-12-14T12:44:59;11.43;;;8.13;;
21334;SDS011;69435;52.670;13.544;2023-12-14T12:47:45;9.10;;;7.30;;
21334;SDS011;69435;52.670;13.544;2023-12-14T12:50:32;11.40;;;8.10;;
21334;SDS011;69435;52.670;13.544;2023-12-14T12:53:18;11.33;;;7.03;;
21334;SDS011;69435;52.670;13.544;2023-12-14T12:56:04;12.70;;;7.20;;
21334;SDS011;69435;52.670;13.544;2023-12-14T12:58:51;12.10;;;7.57;;
21334;SDS011;69435;52.670;13.544;2023-12-14T13:01:39;10.63;;;6.93;;
21334;SDS011;69435;52.670;13.544;2023-12-14T13:04:25;9.03;;;7.10;;
21334;SDS011;69435;52.670;13.544;2023-12-14T13:07:12;10.40;;;7.30;;
21334;SDS011;69435;52.670;13.544;2023-12-14T13:09:58;11.33;;;7.30;;
21334;SDS011;69435;52.670;13.544;2023-12-14T13:12:44;8.77;;;7.00;;
21334;SDS011;69435;52.670;13.544;2023-12-14T13:15:30;12.17;;;7.53;;
21334;SDS011;69435;52.670;13.544;2023-12-14T13:18:16;9.40;;;7.30;;
21334;SDS011;69435;52.670;13.544;2023-12-14T13:21:02;13.97;;;7.77;;
21334;SDS011;69435;52.670;13.544;2023-12-14T13:23:49;11.73;;;7.03;;
21334;SDS011;69435;52.670;13.544;2023-12-14T13:26:36;8.70;;;6.80;;
21334;SDS011;69435;52.670;13.544;2023-12-14T13:29:22;11.67;;;7.20;;
21334;SDS011;69435;52.670;13.544;2023-12-14T13:32:08;12.93;;;7.37;;
21334;SDS011;69435;52.670;13.544;2023-12-14T13:34:54;11.43;;;7.60;;
21334;SDS011;69435;52.670;13.544;2023-12-14T13:37:40;8.00;;;7.20;;
21334;SDS011;69435;52.670;13.544;2023-12-14T13:40:26;10.20;;;7.40;;
21334;SDS011;69435;52.670;13.544;2023-12-14T13:43:12;9.57;;;7.00;;
21334;SDS011;69435;52.670;13.544;2023-12-14T13:45:58;11.93;;;7.07;;
21334;SDS011;69435;52.670;13.544;2023-12-14T13:48:44;11.07;;;7.37;;
21334;SDS011;69435;52.670;13.544;2023-12-14T13:51:31;8.03;;;7.00;;
21334;SDS011;69435;52.670;13.544;2023-12-14T13:54:17;11.43;;;6.80;;
21334;SDS011;69435;52.670;13.544;2023-12-14T13:57:03;8.23;;;6.63;;
21334;SDS011;69435;52.670;13.544;2023-12-14T13:59:49;10.90;;;6.77;;
21334;SDS011;69435;52.670;13.544;2023-12-14T14:02:35;9.93;;;7.00;;
21334;SDS011;69435;52.670;13.544;2023-12-14T14:05:21;12.27;;;8.37;;
21334;SDS011;69435;52.670;13.544;2023-12-14T14:08:07;9.63;;;7.73;;
21334;SDS011;69435;52.670;13.544;2023-12-14T14:10:53;8.27;;;6.80;;
21334;SDS011;69435;52.670;13.544;2023-12-14T14:13:39;8.93;;;7.10;;
21334;SDS011;69435;52.670;13.544;2023-12-14T14:16:26;12.20;;;7.93;;
21334;SDS011;69435;52.670;13.544;2023-12-14T14:19:12;10.93;;;7.33;;
21334;SDS011;69435;52.670;13.544;2023-12-14T14:21:58;9.03;;;6.80;;
21334;SDS011;69435;52.670;13.544;2023-12-14T14:24:44;10.63;;;6.77;;
21334;SDS011;69435;52.670;13.544;2023-12-14T14:27:30;15.13;;;7.20;;
21334;SDS011;69435;52.670;13.544;2023-12-14T14:30:16;10.17;;;6.60;;
21334;SDS011;69435;52.670;13.544;2023-12-14T14:33:02;10.23;;;6.97;;
21334;SDS011;69435;52.670;13.544;2023-12-14T14:35:48;9.77;;;6.63;;
21334;SDS011;69435;52.670;13.544;2023-12-14T14:38:35;9.67;;;7.30;;
21334;SDS011;69435;52.670;13.544;2023-12-14T14:41:21;11.97;;;7.50;;
21334;SDS011;69435;52.670;13.544;2023-12-14T14:44:07;9.03;;;7.10;;
21334;SDS011;69435;52.670;13.544;2023-12-14T14:46:53;9.47;;;6.37;;
21334;SDS011;69435;52.670;13.544;2023-12-14T14:49:39;12.43;;;6.63;;
21334;SDS011;69435;52.670;13.544;2023-12-14T14:52:26;17.07;;;8.27;;
21334;SDS011;69435;52.670;13.544;2023-12-14T14:55:12;15.37;;;10.03;;
21334;SDS011;69435;52.670;13.544;2023-12-14T14:57:58;11.60;;;7.70;;
21334;SDS011;69435;52.670;13.544;2023-12-14T15:00:44;12.07;;;7.90;;
21334;SDS011;69435;52.670;13.544;2023-12-14T15:03:30;12.37;;;7.00;;
21334;SDS011;69435;52.670;13.544;2023-12-14T15:06:16;13.60;;;7.87;;
21334;SDS011;69435;52.670;13.544;2023-12-14T15:09:02;14.80;;;8.03;;
21334;SDS011;69435;52.670;13.544;2023-12-14T15:11:52;14.23;;;9.27;;
21334;SDS011;69435;52.670;13.544;2023-12-14T15:14:38;14.63;;;8.60;;
21334;SDS011;69435;52.670;13.544;2023-12-14T15:17:24;13.53;;;8.50;;
21334;SDS011;69435;52.670;13.544;2023-12-14T15:20:11;12.97;;;8.57;;
21334;SDS011;69435;52.670;13.544;2023-12-14T15:22:57;10.83;;;6.83;;
21334;SDS011;69435;52.670;13.544;2023-12-14T15:25:43;9.07;;;7.10;;
21334;SDS011;69435;52.670;13.544;2023-12-14T15:28:29;10.27;;;7.40;;
21334;SDS011;69435;52.670;13.544;2023-12-14T15:31:15;8.43;;;6.87;;
21334;SDS011;69435;52.670;13.544;2023-12-14T15:34:01;12.20;;;8.67;;
21334;SDS011;69435;52.670;13.544;2023-12-14T15:36:48;11.73;;;7.90;;
21334;SDS011;69435;52.670;13.544;2023-12-14T15:39:34;12.70;;;7.33;;
21334;SDS011;69435;52.670;13.544;2023-12-14T15:42:20;12.33;;;6.70;;
21334;SDS011;69435;52.670;13.544;2023-12-14T15:45:06;10.03;;;7.40;;
21334;SDS011;69435;52.670;13.544;2023-12-14T15:47:53;9.63;;;7.10;;
21334;SDS011;69435;52.670;13.544;2023-12-14T15:50:39;11.57;;;7.40;;
21334;SDS011;69435;52.670;13.544;2023-12-14T15:53:25;13.63;;;8.37;;
21334;SDS011;69435;52.670;13.544;2023-12-14T15:56:11;11.93;;;7.53;;
21334;SDS011;69435;52.670;13.544;2023-12-14T15:58:58;9.57;;;7.77;;
21334;SDS011;69435;52.670;13.544;2023-12-14T16:01:44;12.20;;;7.80;;
21334;SDS011;69435;52.670;13.544;2023-12-14T16:04:30;10.40;;;7.43;;
21334;SDS011;69435;52.670;13.544;2023-12-14T16:07:16;11.53;;;7.93;;
21334;SDS011;69435;52.670;13.544;2023-12-14T16:10:02;13.73;;;7.47;;
21334;SDS011;69435;52.670;13.544;2023-12-14T16:12:49;11.33;;;7.37;;
21334;SDS011;69435;52.670;13.544;2023-12-14T16:15:36;11.37;;;7.80;;
21334;SDS011;69435;52.670;13.544;2023-12-14T16:18:22;9.47;;;7.50;;
21334;SDS011;69435;52.670;13.544;2023-12-14T16:21:08;9.63;;;7.23;;